Time;durP1;ratioP1;P1;durP2;ratioP2;P2;SDS_P1;SDS_P2;PMS_P1;PMS_P2;Temp;Humidity;BMP_temperature;BMP_pressure;BME280_temperature;BME280_humidity;BME280_pressure;Samples;Min_cycle;Max_cycle;Signal;HPM_P1;HPM_P2
2022/11/18 00:01:11;;;;;;;13.27;4.00;;;;;;;9.56;95.65;99157.84;5073105;28;20074;-58
2022/11/18 00:03:39;;;;;;;16.08;3.95;;;;;;;9.54;95.78;99161.69;5072812;28;20063;-58
2022/11/18 00:06:10;;;;;;;15.07;4.30;;;;;;;9.54;95.97;99156.41;5072319;28;20048;-58
2022/11/18 00:08:36;;;;;;;11.68;3.72;;;;;;;9.56;95.82;99163.16;5073110;28;20410;-58
2022/11/18 00:11:08;;;;;;;15.70;4.47;;;;;;;9.59;96.00;99164.63;5071561;28;20094;-59
2022/11/18 00:16:23;;;;;;;10.93;3.58;;;;;;;9.56;95.72;99164.97;5072458;28;19927;-59
2022/11/18 00:18:50;;;;;;;15.15;4.35;;;;;;;9.53;95.86;99176.78;5072046;28;20044;-59
2022/11/18 00:21:17;;;;;;;12.68;3.78;;;;;;;9.47;96.30;99176.69;5073172;28;20072;-59
2022/11/18 00:23:47;;;;;;;13.50;3.78;;;;;;;9.54;95.99;99174.94;5072991;28;20068;-59
2022/11/18 00:26:14;;;;;;;16.30;4.03;;;;;;;9.47;96.21;99177.50;5076928;28;20055;-59
2022/11/18 00:28:41;;;;;;;15.32;4.20;;;;;;;9.53;95.99;99182.06;5076797;28;20539;-59
2022/11/18 00:31:11;;;;;;;15.73;4.13;;;;;;;9.49;95.86;99180.78;5076616;28;20075;-58
2022/11/18 00:33:39;;;;;;;16.33;4.55;;;;;;;9.47;96.32;99181.97;5076720;28;20537;-58
2022/11/18 00:36:08;;;;;;;10.50;3.80;;;;;;;9.49;95.90;99185.25;5076898;28;20058;-58
2022/11/18 00:38:36;;;;;;;16.85;4.65;;;;;;;9.49;96.16;99183.41;5076848;28;20048;-59
2022/11/18 00:41:08;;;;;;;13.10;3.97;;;;;;;9.53;96.43;99186.53;5076648;28;20106;-58
2022/11/18 00:43:36;;;;;;;14.98;3.80;;;;;;;9.50;96.30;99192.22;5075317;28;20036;-59
2022/11/18 00:46:04;;;;;;;14.43;3.60;;;;;;;9.57;96.11;99188.63;5076298;28;20041;-58
2022/11/18 00:48:30;;;;;;;14.35;3.67;;;;;;;9.53;95.78;99190.00;5076584;28;20406;-59
2022/11/18 00:51:05;;;;;;;12.57;4.05;;;;;;;9.49;96.41;99187.91;5076292;28;20044;-58
2022/11/18 00:53:32;;;;;;;14.30;4.07;;;;;;;9.44;96.53;99188.47;5076522;28;20132;-58
2022/11/18 00:55:58;;;;;;;16.80;3.90;;;;;;;9.41;96.25;99192.28;5076173;28;20037;-58
2022/11/18 00:58:25;;;;;;;13.65;3.67;;;;;;;9.37;96.51;99192.88;5076268;28;20044;-58
2022/11/18 01:00:52;;;;;;;11.18;4.10;;;;;;;9.30;97.11;99197.25;5076038;28;20405;-58
2022/11/18 01:03:19;;;;;;;12.70;4.15;;;;;;;9.36;96.50;99202.59;5075573;28;20453;-58
2022/11/18 01:05:47;;;;;;;11.60;3.53;;;;;;;9.30;96.53;99208.66;5075253;28;20086;-58
2022/11/18 01:08:14;;;;;;;15.82;3.72;;;;;;;9.29;97.07;99212.28;5075879;28;20544;-58
2022/11/18 01:10:41;;;;;;;18.42;3.90;;;;;;;9.31;97.01;99215.56;5076360;28;20052;-59
2022/11/18 01:13:19;;;;;;;14.25;4.10;;;;;;;9.46;96.36;99217.38;5075795;28;20132;-59
2022/11/18 01:15:49;;;;;;;10.80;3.70;;;;;;;9.42;96.17;99216.94;5075698;28;20425;-58
2022/11/18 01:18:18;;;;;;;11.68;3.53;;;;;;;9.47;96.21;99216.38;5076118;28;20098;-58
2022/11/18 01:20:45;;;;;;;12.95;3.90;;;;;;;9.43;96.22;99223.06;5075871;28;20055;-60
2022/11/18 01:23:14;;;;;;;13.35;3.33;;;;;;;9.38;96.25;99221.75;5076059;28;20048;-58
2022/11/18 01:25:44;;;;;;;12.95;3.55;;;;;;;9.34;96.71;99223.13;5075465;28;20037;-59
2022/11/18 01:28:12;;;;;;;15.35;3.83;;;;;;;9.33;96.93;99220.66;5075956;28;20044;-58
2022/11/18 01:30:40;;;;;;;12.07;3.90;;;;;;;9.39;96.68;99226.06;5074349;28;20041;-59
2022/11/18 01:33:07;;;;;;;14.23;4.15;;;;;;;9.42;96.50;99222.22;5075850;28;20063;-59
2022/11/18 01:35:35;;;;;;;13.23;3.90;;;;;;;9.41;96.36;99221.41;5075252;28;20060;-58
2022/11/18 01:38:03;;;;;;;13.70;3.50;;;;;;;9.31;96.68;99230.63;5075625;28;20402;-58
2022/11/18 01:40:31;;;;;;;14.43;4.00;;;;;;;9.28;97.02;99231.81;5075515;28;20402;-59
2022/11/18 01:42:58;;;;;;;16.55;4.20;;;;;;;9.22;97.23;99233.38;5075625;28;20095;-58
2022/11/18 01:45:32;;;;;;;20.65;4.57;;;;;;;9.30;97.13;99236.94;5075390;28;20051;-58
2022/11/18 01:48:07;;;;;;;10.82;3.80;;;;;;;9.33;97.12;99232.09;5075387;28;20094;-58
2022/11/18 01:50:38;;;;;;;15.38;4.35;;;;;;;9.30;97.15;99235.09;5075344;28;20048;-58
2022/11/18 01:53:10;;;;;;;14.48;3.88;;;;;;;9.25;97.17;99234.81;5075411;28;20135;-58
2022/11/18 01:55:43;;;;;;;15.13;4.00;;;;;;;9.33;97.19;99233.91;5075343;28;20040;-58
2022/11/18 01:58:17;;;;;;;14.55;4.30;;;;;;;9.24;97.22;99235.84;5075589;28;20494;-58
2022/11/18 02:00:44;;;;;;;13.85;4.00;;;;;;;9.29;96.99;99240.56;5075052;28;20048;-58
2022/11/18 02:03:11;;;;;;;13.73;4.15;;;;;;;9.27;97.27;99237.28;4945734;28;20935;-58
2022/11/18 02:05:39;;;;;;;12.27;3.80;;;;;;;9.20;97.76;99245.13;5074568;28;20044;-58
2022/11/18 02:08:06;;;;;;;14.35;3.95;;;;;;;9.22;97.68;99251.06;5075128;28;20512;-58
2022/11/18 02:10:33;;;;;;;12.93;4.15;;;;;;;9.22;97.52;99254.53;5074584;28;20064;-58
2022/11/18 02:13:00;;;;;;;15.05;4.18;;;;;;;9.22;97.77;99253.69;5075080;28;20052;-59
2022/11/18 02:15:56;;;;;;;15.32;4.40;;;;;;;9.25;97.50;99253.34;5074937;28;20048;-59
2022/11/18 02:18:51;;;;;;;18.48;4.25;;;;;;;9.31;97.43;99267.66;5074747;28;20056;-59
2022/11/18 02:21:47;;;;;;;17.08;4.20;;;;;;;9.26;97.27;99264.75;5074502;28;20068;-58
2022/11/18 02:24:45;;;;;;;15.82;4.35;;;;;;;9.29;97.17;99265.19;5073242;28;20036;-58
2022/11/18 02:27:45;;;;;;;14.30;3.90;;;;;;;9.32;97.03;99272.78;5074174;28;20138;-58
2022/11/18 02:30:15;;;;;;;18.15;4.75;;;;;;;9.31;97.06;99276.44;5074781;28;20048;-58
2022/11/18 02:38:25;;;;;;;13.65;3.70;;;;;;;9.18;97.52;99281.53;5111138;27;20347;-58
2022/11/18 02:41:13;;;;;;;13.38;4.20;;;;;;;9.15;97.70;99279.25;5110941;28;20087;-58
2022/11/18 02:43:46;;;;;;;11.98;4.20;;;;;;;9.15;97.75;99281.88;5111125;28;20048;-57
2022/11/18 02:46:19;;;;;;;15.00;4.25;;;;;;;9.06;97.80;99281.16;5110725;28;20044;-58
2022/11/18 02:48:50;;;;;;;13.88;4.35;;;;;;;9.02;98.32;99285.16;5110649;28;20050;-58
2022/11/18 02:51:23;;;;;;;12.35;4.00;;;;;;;9.13;97.87;99284.72;5111028;28;20044;-57
2022/11/18 02:53:52;;;;;;;14.13;4.43;;;;;;;9.12;97.88;99290.19;5092595;28;20051;-59
2022/11/18 02:56:20;;;;;;;17.42;4.47;;;;;;;9.17;97.83;99285.19;5110751;28;20040;-57
2022/11/18 02:58:46;;;;;;;14.15;4.68;;;;;;;9.20;97.79;99288.31;5110818;28;20130;-58
2022/11/18 03:01:19;;;;;;;15.98;4.63;;;;;;;9.19;97.76;99286.66;5110851;28;20448;-58
2022/11/18 03:03:46;;;;;;;13.05;4.78;;;;;;;9.14;98.07;99288.19;4984433;28;20046;-59
2022/11/18 03:06:35;;;;;;;12.77;4.13;;;;;;;9.21;97.83;99295.22;5109881;28;20042;-59
2022/11/18 03:09:21;;;;;;;16.15;4.22;;;;;;;9.29;97.81;99296.16;5110397;28;20097;-59
2022/11/18 03:11:59;;;;;;;16.63;4.93;;;;;;;9.22;97.74;99302.16;5110905;28;20051;-58
2022/11/18 03:20:01;;;;;;;14.43;4.50;;;;;;;9.21;98.46;99302.34;5115421;28;20483;-57
2022/11/18 03:22:39;;;;;;;14.38;4.57;;;;;;;9.16;98.72;99307.34;5111382;28;20117;-57
2022/11/18 03:25:11;;;;;;;15.57;4.18;;;;;;;9.28;98.26;99313.84;5110642;28;20068;-58
2022/11/18 03:27:56;;;;;;;16.52;4.72;;;;;;;9.28;98.47;99318.31;5091260;28;20064;-57
2022/11/18 03:30:23;;;;;;;11.88;4.03;;;;;;;9.24;98.03;99317.88;5090217;28;20055;-58
2022/11/18 03:33:01;;;;;;;17.85;4.80;;;;;;;9.29;98.19;99314.66;5090871;28;20051;-57
2022/11/18 03:35:32;;;;;;;14.70;4.53;;;;;;;9.31;98.19;99323.25;5090297;28;20450;-58
2022/11/18 03:38:05;;;;;;;17.73;4.77;;;;;;;9.20;98.76;99325.34;5090467;28;20036;-58
2022/11/18 03:40:37;;;;;;;14.05;4.22;;;;;;;9.25;98.62;99331.91;5090531;28;20056;-57
2022/11/18 03:43:10;;;;;;;16.90;4.70;;;;;;;9.26;98.63;99329.09;5072144;28;20036;-57
2022/11/18 03:45:44;;;;;;;12.80;4.10;;;;;;;9.29;98.86;99336.66;5089906;28;20127;-58
2022/11/18 03:48:24;;;;;;;13.38;4.57;;;;;;;9.33;98.50;99345.91;5090184;28;20050;-57
2022/11/18 03:50:57;;;;;;;14.25;4.25;;;;;;;9.39;98.68;99345.16;5090276;28;20048;-57
2022/11/18 03:53:26;;;;;;;14.35;4.30;;;;;;;9.44;98.66;99354.38;5055893;28;20044;-58
2022/11/18 03:56:01;;;;;;;14.40;4.47;;;;;;;9.45;98.42;99356.03;5090214;28;20044;-57
2022/11/18 03:58:33;;;;;;;13.75;4.40;;;;;;;9.35;98.77;99358.94;5090189;28;20052;-57
2022/11/18 04:01:10;;;;;;;13.70;4.47;;;;;;;9.38;98.64;99354.09;5089882;28;20056;-57
2022/11/18 04:03:37;;;;;;;18.05;4.30;;;;;;;9.35;98.11;99364.22;4971011;28;21028;-58
2022/11/18 04:06:14;;;;;;;12.60;3.97;;;;;;;9.40;98.34;99361.88;5089329;28;20066;-57
2022/11/18 04:08:43;;;;;;;12.32;4.32;;;;;;;9.44;97.86;99357.88;5089591;28;20378;-57
2022/11/18 04:14:07;;;;;;;17.50;4.38;;;;;;;9.37;98.64;99375.47;5071663;28;20044;-58
2022/11/18 04:16:42;;;;;;;13.07;3.83;;;;;;;9.41;98.55;99376.75;5071224;28;20052;-58
2022/11/18 04:19:09;;;;;;;15.50;4.40;;;;;;;9.45;98.41;99377.22;5083725;28;20044;-58
2022/11/18 04:21:35;;;;;;;13.30;4.50;;;;;;;9.41;98.46;99388.16;5089407;28;20094;-58
2022/11/18 04:24:02;;;;;;;11.90;4.40;;;;;;;9.45;98.38;99375.38;5088442;28;20048;-58
2022/11/18 04:26:30;;;;;;;12.88;4.10;;;;;;;9.40;98.16;99388.34;5089580;28;20055;-58
2022/11/18 04:28:58;;;;;;;17.63;4.40;;;;;;;9.47;98.50;99380.50;5087902;28;20036;-58
2022/11/18 04:31:24;;;;;;;14.40;4.07;;;;;;;9.49;98.38;99392.53;5075687;28;20052;-58
2022/11/18 04:33:51;;;;;;;13.32;4.55;;;;;;;9.52;98.41;99386.91;5074489;28;20049;-58
2022/11/18 04:36:18;;;;;;;13.63;4.22;;;;;;;9.52;98.77;99392.19;5076221;28;20394;-58
2022/11/18 04:38:45;;;;;;;13.55;4.18;;;;;;;9.54;98.77;99402.59;5075378;28;20509;-57
2022/11/18 04:41:12;;;;;;;12.63;4.35;;;;;;;9.47;98.28;99405.13;5074942;28;20063;-58
2022/11/18 04:43:39;;;;;;;16.13;4.82;;;;;;;9.55;98.39;99404.22;5074544;28;20052;-58
2022/11/18 04:46:07;;;;;;;14.25;4.63;;;;;;;9.55;98.32;99410.38;5074430;28;20052;-58
2022/11/18 04:48:34;;;;;;;17.52;4.93;;;;;;;9.51;98.18;99408.25;5075280;28;20047;-58
2022/11/18 04:51:03;;;;;;;22.25;4.93;;;;;;;9.50;98.45;99412.72;5075636;28;20052;-58
2022/11/18 04:53:30;;;;;;;17.85;4.35;;;;;;;9.46;98.72;99419.41;5075541;28;20052;-58
2022/11/18 04:56:04;;;;;;;15.90;4.70;;;;;;;9.48;98.71;99420.03;5075220;28;20048;-58
2022/11/18 04:58:31;;;;;;;16.75;4.72;;;;;;;9.47;99.07;99423.66;5075486;28;20131;-58
2022/11/18 05:00:57;;;;;;;14.82;4.88;;;;;;;9.52;99.15;99423.16;5075183;28;20098;-58
2022/11/18 05:03:24;;;;;;;21.40;5.45;;;;;;;9.47;99.13;99417.56;4955722;28;20040;-58
2022/11/18 05:05:51;;;;;;;12.75;4.43;;;;;;;9.44;99.14;99426.69;5074439;28;20067;-58
2022/11/18 05:08:17;;;;;;;12.77;4.50;;;;;;;9.40;99.92;99420.09;5073593;28;20127;-58
2022/11/18 05:10:44;;;;;;;12.23;4.57;;;;;;;9.42;99.96;99436.63;5074872;28;20406;-58
2022/11/18 05:13:12;;;;;;;19.85;4.90;;;;;;;9.45;100.00;99438.09;5075094;28;20136;-58
2022/11/18 05:15:38;;;;;;;18.52;4.43;;;;;;;9.43;100.00;99432.97;5057216;28;20055;-58
2022/11/18 05:18:05;;;;;;;16.10;4.68;;;;;;;9.46;100.00;99439.72;5068267;28;20083;-58
2022/11/18 05:20:32;;;;;;;13.68;4.85;;;;;;;9.41;100.00;99438.44;5054882;28;20049;-58
2022/11/18 05:23:00;;;;;;;14.20;5.32;;;;;;;9.44;100.00;99439.94;5055099;28;20562;-59
2022/11/18 05:25:27;;;;;;;14.18;5.20;;;;;;;9.37;100.00;99439.00;5054421;28;20402;-58
2022/11/18 05:27:53;;;;;;;15.02;5.03;;;;;;;9.39;100.00;99443.09;5054638;28;20405;-58
2022/11/18 05:30:22;;;;;;;20.73;4.93;;;;;;;9.36;100.00;99446.09;5054483;28;20075;-58
2022/11/18 05:32:48;;;;;;;13.35;4.70;;;;;;;9.34;100.00;99440.16;5054947;28;20049;-58
2022/11/18 05:35:15;;;;;;;17.00;4.70;;;;;;;9.33;100.00;99454.41;5054232;28;20036;-58
2022/11/18 05:37:42;;;;;;;15.05;5.10;;;;;;;9.30;100.00;99454.75;5054754;28;20049;-58
2022/11/18 05:40:09;;;;;;;22.25;5.85;;;;;;;9.19;100.00;99453.34;5054785;28;20045;-58
2022/11/18 05:45:22;;;;;;;16.52;4.85;;;;;;;9.20;100.00;99462.09;5039502;28;20124;-58
2022/11/18 05:48:05;;;;;;;14.90;5.25;;;;;;;9.18;100.00;99464.91;5054216;28;20048;-58
2022/11/18 05:50:34;;;;;;;18.52;5.38;;;;;;;9.19;100.00;99469.22;5054419;28;20403;-58
2022/11/18 05:53:02;;;;;;;19.00;5.65;;;;;;;9.17;100.00;99473.06;5054100;28;20048;-58
2022/11/18 05:55:35;;;;;;;15.82;4.97;;;;;;;9.19;100.00;99477.16;5054405;28;20049;-58
2022/11/18 05:58:02;;;;;;;17.17;5.68;;;;;;;9.20;100.00;99475.31;5036653;28;20103;-57
2022/11/18 06:00:30;;;;;;;12.73;5.00;;;;;;;9.18;100.00;99480.78;5053811;28;20041;-59
2022/11/18 06:02:58;;;;;;;17.90;5.15;;;;;;;9.17;100.00;99478.34;4972213;28;20520;-58
2022/11/18 06:05:25;;;;;;;15.52;5.53;;;;;;;9.16;100.00;99488.06;5002253;28;20487;-58
2022/11/18 06:07:56;;;;;;;13.60;4.45;;;;;;;9.21;100.00;99495.50;5054000;28;20049;-59
2022/11/18 06:10:28;;;;;;;19.73;5.85;;;;;;;9.23;100.00;99501.44;5054071;28;20048;-59
2022/11/18 06:13:01;;;;;;;15.98;5.28;;;;;;;9.25;100.00;99502.09;5054035;28;20406;-57
2022/11/18 06:15:35;;;;;;;17.10;5.00;;;;;;;9.24;100.00;99505.75;5053848;28;20116;-59
2022/11/18 06:18:08;;;;;;;18.02;5.22;;;;;;;9.28;100.00;99506.19;5053516;28;20049;-59
2022/11/18 06:20:39;;;;;;;16.92;5.47;;;;;;;9.27;100.00;99510.66;5054088;28;20106;-59
2022/11/18 06:23:06;;;;;;;20.02;5.00;;;;;;;9.28;100.00;99516.78;5053354;28;20044;-59
2022/11/18 06:25:36;;;;;;;17.02;5.40;;;;;;;9.28;100.00;99517.63;5053972;28;20049;-58
2022/11/18 06:28:03;;;;;;;20.83;5.38;;;;;;;9.34;100.00;99521.38;5053156;28;20051;-58
2022/11/18 06:30:32;;;;;;;17.90;4.75;;;;;;;9.32;100.00;99523.38;5053251;28;20051;-58
2022/11/18 06:32:59;;;;;;;14.90;5.22;;;;;;;9.31;100.00;99524.38;5035255;28;20534;-58
2022/11/18 06:35:25;;;;;;;18.00;5.18;;;;;;;9.32;100.00;99526.84;5053746;28;20052;-58
2022/11/18 06:37:52;;;;;;;18.42;4.82;;;;;;;9.33;100.00;99527.66;5053053;28;20053;-58
2022/11/18 06:40:18;;;;;;;17.90;5.10;;;;;;;9.35;100.00;99536.25;5053219;28;20071;-58
2022/11/18 06:45:32;;;;;;;17.30;4.82;;;;;;;9.26;100.00;99538.16;5052552;28;20048;-58
2022/11/18 06:47:59;;;;;;;13.13;4.80;;;;;;;9.29;99.82;99545.72;5052786;28;20491;-59
2022/11/18 06:50:27;;;;;;;17.58;5.30;;;;;;;9.34;99.73;99550.50;5052717;28;20665;-58
2022/11/18 06:52:54;;;;;;;21.30;5.28;;;;;;;9.37;99.31;99552.81;5052920;28;20052;-59
2022/11/18 06:55:21;;;;;;;17.63;4.47;;;;;;;9.37;99.36;99558.09;5052706;28;20041;-58
2022/11/18 06:57:47;;;;;;;16.05;4.68;;;;;;;9.38;99.10;99560.53;5053020;28;20410;-58
2022/11/18 07:00:15;;;;;;;16.38;4.65;;;;;;;9.29;97.93;99561.59;5052985;28;20060;-58
2022/11/18 07:02:42;;;;;;;15.13;4.28;;;;;;;9.27;96.32;99563.59;4928342;28;20499;-57
2022/11/18 07:05:08;;;;;;;14.80;4.38;;;;;;;9.29;97.78;99574.00;5034404;28;20056;-59
2022/11/18 07:07:35;;;;;;;21.02;4.55;;;;;;;9.32;98.22;99571.84;5056118;28;20052;-59
2022/11/18 07:10:06;;;;;;;13.93;3.80;;;;;;;9.26;98.00;99577.00;5052777;28;20045;-58
2022/11/18 07:12:33;;;;;;;19.20;4.55;;;;;;;9.35;98.36;99589.19;5052524;28;20114;-59
2022/11/18 07:14:59;;;;;;;13.80;4.15;;;;;;;9.33;99.01;99588.53;5053210;28;20053;-60
2022/11/18 07:17:29;;;;;;;19.88;4.88;;;;;;;9.34;98.51;99588.38;5052776;28;20422;-59
2022/11/18 07:19:56;;;;;;;13.88;4.43;;;;;;;9.38;98.96;99592.31;5052667;28;20056;-59
2022/11/18 07:22:23;;;;;;;18.08;4.80;;;;;;;9.39;99.45;99593.97;5053205;28;20053;-59
2022/11/18 07:24:49;;;;;;;18.98;4.55;;;;;;;9.35;99.89;99605.91;5052587;28;20044;-59
2022/11/18 07:27:16;;;;;;;13.93;5.05;;;;;;;9.33;100.00;99607.91;5052803;28;20053;-58
2022/11/18 07:29:43;;;;;;;12.10;4.65;;;;;;;9.36;100.00;99612.03;5034682;28;20569;-59
2022/11/18 07:32:10;;;;;;;19.70;4.65;;;;;;;9.37;100.00;99617.13;5052475;28;20044;-59
2022/11/18 07:34:37;;;;;;;16.33;5.25;;;;;;;9.34;100.00;99619.31;5052918;28;20063;-59
2022/11/18 07:37:04;;;;;;;14.82;4.80;;;;;;;9.37;100.00;99619.78;5052739;28;20171;-59
2022/11/18 07:39:31;;;;;;;15.40;5.10;;;;;;;9.30;100.00;99628.59;5052840;28;20037;-58
2022/11/18 07:41:57;;;;;;;15.60;5.57;;;;;;;9.38;100.00;99633.84;5052412;28;20098;-58
2022/11/18 07:44:24;;;;;;;18.08;4.95;;;;;;;9.43;100.00;99631.50;5035059;28;20061;-58
2022/11/18 07:46:51;;;;;;;15.60;4.78;;;;;;;9.44;100.00;99641.09;5052466;28;20133;-59
2022/11/18 07:49:18;;;;;;;15.85;4.63;;;;;;;9.49;99.49;99640.56;5052862;28;20091;-60
2022/11/18 07:51:44;;;;;;;17.00;4.85;;;;;;;9.52;99.89;99637.59;5052171;28;20043;-59
2022/11/18 07:54:15;;;;;;;18.77;5.10;;;;;;;9.54;100.00;99644.34;5052343;28;20060;-59
2022/11/18 07:56:42;;;;;;;15.70;4.85;;;;;;;9.57;100.00;99644.00;5052657;28;20079;-59
2022/11/18 07:59:09;;;;;;;17.35;5.15;;;;;;;9.58;100.00;99644.81;5052422;28;20083;-59
2022/11/18 08:01:36;;;;;;;15.57;5.15;;;;;;;9.58;99.73;99650.13;5052566;28;20060;-59
2022/11/18 08:04:06;;;;;;;17.70;5.25;;;;;;;9.59;99.57;99651.78;4922134;28;20494;-59
2022/11/18 08:06:34;;;;;;;20.90;5.18;;;;;;;9.61;99.31;99652.41;5055837;28;20064;-59
2022/11/18 08:09:01;;;;;;;18.42;4.55;;;;;;;9.64;99.48;99656.53;5056321;28;20052;-59
2022/11/18 08:11:29;;;;;;;16.90;5.10;;;;;;;9.60;99.35;99664.00;5056480;28;20052;-59
2022/11/18 08:13:56;;;;;;;16.70;5.28;;;;;;;9.61;99.45;99665.66;5056278;28;20048;-59
2022/11/18 08:16:24;;;;;;;14.95;5.13;;;;;;;9.60;99.15;99669.28;5055958;28;20041;-59
2022/11/18 08:18:52;;;;;;;13.77;5.03;;;;;;;9.61;99.06;99663.00;5060609;28;20520;-59
2022/11/18 08:21:20;;;;;;;18.13;6.90;;;;;;;9.59;98.85;99672.97;5076033;28;20050;-59
2022/11/18 08:23:50;;;;;;;15.05;5.80;;;;;;;9.58;98.49;99676.59;5075711;28;20398;-58
2022/11/18 08:26:18;;;;;;;18.77;5.05;;;;;;;9.68;97.47;99684.31;5063430;28;20080;-57
2022/11/18 08:28:45;;;;;;;14.93;5.07;;;;;;;9.66;96.58;99687.16;5075698;28;20044;-56
2022/11/18 08:31:16;;;;;;;16.48;5.43;;;;;;;9.67;96.20;99691.44;5073312;28;20040;-57
2022/11/18 08:33:44;;;;;;;14.55;5.05;;;;;;;9.58;95.27;99688.00;5074491;28;20048;-57
2022/11/18 08:36:15;;;;;;;20.50;6.07;;;;;;;9.57;95.25;99690.84;5076885;28;20070;-57
2022/11/18 08:38:42;;;;;;;21.70;5.75;;;;;;;9.56;94.83;99695.28;5084577;28;20047;-53
2022/11/18 08:41:13;;;;;;;111.38;50.13;;;;;;;9.54;94.26;99693.84;5081843;27;20044;-55
2022/11/18 08:43:40;;;;;;;20.23;6.63;;;;;;;9.64;95.13;99696.25;5077354;28;20052;-58
2022/11/18 08:46:07;;;;;;;15.20;4.97;;;;;;;9.50;95.09;99692.53;5077505;28;20048;-58
2022/11/18 08:48:34;;;;;;;16.27;5.10;;;;;;;9.57;95.25;99694.31;5077675;28;20051;-58
2022/11/18 08:51:02;;;;;;;19.27;5.15;;;;;;;9.66;94.55;99699.53;5075400;28;20040;-58
2022/11/18 08:53:29;;;;;;;13.38;5.35;;;;;;;9.66;95.20;99700.41;5068154;28;20059;-57
2022/11/18 08:55:56;;;;;;;18.10;5.38;;;;;;;9.66;94.84;99703.03;5086709;28;20041;-57
2022/11/18 08:58:24;;;;;;;16.65;5.20;;;;;;;9.64;93.39;99699.75;5082224;28;20048;-58
2022/11/18 09:00:50;;;;;;;21.85;7.70;;;;;;;9.67;93.08;99704.69;5100704;28;20533;-48
2022/11/18 09:03:17;;;;;;;20.58;5.28;;;;;;;9.66;92.60;99704.84;5054142;28;20116;-58
2022/11/18 09:05:44;;;;;;;19.52;5.43;;;;;;;9.63;92.89;99707.84;5081131;28;20049;-58
2022/11/18 09:08:11;;;;;;;13.85;5.13;;;;;;;9.76;93.17;99714.22;5071470;28;20039;-58
2022/11/18 09:10:38;;;;;;;17.55;5.32;;;;;;;9.82;92.45;99715.34;5093676;28;20040;-58
2022/11/18 09:13:04;;;;;;;15.63;4.72;;;;;;;9.76;91.66;99719.53;5075234;28;20044;-58
2022/11/18 09:15:43;;;;;;;16.13;4.63;;;;;;;9.89;92.73;99712.84;5081446;28;20134;-58
2022/11/18 09:18:10;;;;;;;18.98;5.13;;;;;;;9.98;91.41;99728.50;5066271;28;20056;-58
2022/11/18 09:20:37;;;;;;;89.45;30.25;;;;;;;9.95;91.28;99726.22;5068522;28;20107;-50
2022/11/18 09:23:04;;;;;;;17.70;5.32;;;;;;;9.90;91.33;99725.91;5051762;28;20431;-58
2022/11/18 09:25:30;;;;;;;15.20;4.90;;;;;;;9.96;90.27;99727.84;5060780;28;20065;-58
2022/11/18 09:27:58;;;;;;;21.75;5.53;;;;;;;9.95;89.26;99738.63;5055108;28;20063;-58
2022/11/18 09:30:25;;;;;;;19.60;4.97;;;;;;;9.81;89.26;99732.25;5055126;28;20130;-58
2022/11/18 09:32:52;;;;;;;17.80;4.90;;;;;;;9.80;89.99;99730.59;5059885;28;20045;-58
2022/11/18 09:35:20;;;;;;;19.95;4.88;;;;;;;9.94;90.33;99737.00;5038514;28;20562;-58
2022/11/18 09:37:46;;;;;;;17.05;4.93;;;;;;;9.87;89.13;99734.19;5054225;28;20028;-59
2022/11/18 09:40:16;;;;;;;24.45;5.60;;;;;;;9.97;89.25;99739.31;5055996;28;20044;-59
2022/11/18 09:43:07;;;;;;;20.15;4.90;;;;;;;9.98;88.40;99749.69;5062059;28;20056;-59
2022/11/18 09:45:43;;;;;;;15.32;4.95;;;;;;;10.09;88.38;99747.66;5036510;28;20041;-57
2022/11/18 09:48:20;;;;;;;15.40;4.40;;;;;;;10.01;86.96;99750.38;5067820;28;20127;-58
2022/11/18 09:50:47;;;;;;;23.20;5.03;;;;;;;10.11;87.64;99745.66;5060685;28;20036;-57
2022/11/18 09:53:19;;;;;;;21.38;5.30;;;;;;;10.07;88.08;99747.00;5054243;28;20041;-58
2022/11/18 09:55:47;;;;;;;14.18;4.55;;;;;;;10.12;87.94;99755.28;5051463;28;20617;-59
2022/11/18 09:58:20;;;;;;;14.60;4.30;;;;;;;10.22;87.03;99760.34;5057384;28;20062;-59
2022/11/18 10:00:46;;;;;;;17.23;4.32;;;;;;;10.12;86.56;99764.03;5060019;28;20063;-59
2022/11/18 10:03:25;;;;;;;19.05;4.13;;;;;;;10.21;88.08;99772.78;5017594;28;20099;-58
2022/11/18 10:06:22;;;;;;;13.90;3.97;;;;;;;10.24;87.67;99775.09;5062452;28;20432;-59
2022/11/18 10:09:29;;;;;;;17.20;4.25;;;;;;;10.35;86.87;99781.81;5044472;28;20502;-59
2022/11/18 10:12:26;;;;;;;24.40;3.92;;;;;;;10.29;84.71;99785.13;5049130;28;20132;-60
2022/11/18 10:15:18;;;;;;;14.85;3.83;;;;;;;10.40;85.56;99784.75;5059398;28;20039;-60
2022/11/18 10:18:09;;;;;;;14.13;3.30;;;;;;;10.66;84.11;99788.88;5053601;28;20110;-59
2022/11/18 10:20:50;;;;;;;10.97;2.93;;;;;;;10.71;83.94;99782.06;5061294;28;20044;-59
2022/11/18 10:23:34;;;;;;;15.05;3.25;;;;;;;10.98;82.62;99792.28;5051100;28;20109;-59
2022/11/18 10:26:01;;;;;;;16.90;3.15;;;;;;;11.03;81.35;99798.69;5057259;28;20471;-54
2022/11/18 10:28:29;;;;;;;13.68;3.08;;;;;;;11.12;81.55;99792.31;5052114;28;20052;-60
2022/11/18 10:31:11;;;;;;;16.60;3.60;;;;;;;11.20;80.72;99788.75;5061641;28;20045;-60
2022/11/18 10:33:38;;;;;;;20.38;5.93;;;;;;;11.19;80.90;99804.84;5055874;28;20066;-48
2022/11/18 10:38:46;;;;;;;14.85;3.60;;;;;;;11.67;79.57;99800.03;5111789;27;20506;-59
2022/11/18 10:41:19;;;;;;;13.77;3.28;;;;;;;11.66;78.10;99814.31;5054292;28;20043;-59
2022/11/18 10:43:52;;;;;;;11.65;3.45;;;;;;;11.93;77.77;99809.38;5107874;28;20056;-59
2022/11/18 10:52:05;;;;;;;12.05;3.10;;;;;;;11.33;78.25;99818.16;5056015;28;20384;-60
2022/11/18 10:54:32;;;;;;;11.23;3.00;;;;;;;11.47;78.66;99821.00;5051899;28;20041;-60
2022/11/18 10:57:06;;;;;;;13.40;3.42;;;;;;;13.35;71.54;99822.03;5045253;28;20498;-60
2022/11/18 11:02:30;;;;;;;13.68;2.95;;;;;;;14.89;64.78;99829.63;5141629;27;21023;-59
2022/11/18 11:05:01;;;;;;;15.18;2.92;;;;;;;15.63;61.23;99826.91;5093658;27;20077;-59
2022/11/18 11:07:31;;;;;;;10.27;2.67;;;;;;;14.53;63.36;99824.59;5124620;27;20055;-61
2022/11/18 11:12:50;;;;;;;14.93;3.75;;;;;;;17.42;54.47;99827.72;5089899;27;20364;-58
2022/11/18 11:15:23;;;;;;;14.52;3.00;;;;;;;17.74;52.50;99824.13;5090056;28;20527;-58
2022/11/18 11:20:43;;;;;;;13.85;2.53;;;;;;;15.58;58.53;99830.19;5102895;28;20066;-58
2022/11/18 11:23:13;;;;;;;11.32;2.95;;;;;;;14.97;60.73;99825.91;5081625;28;20060;-58
2022/11/18 11:25:53;;;;;;;16.97;3.43;;;;;;;14.01;64.38;99825.06;5082071;28;20132;-59
2022/11/18 11:28:52;;;;;;;23.80;2.85;;;;;;;14.46;63.28;99824.63;5084216;28;20339;-58
2022/11/18 11:31:31;;;;;;;15.35;2.97;;;;;;;15.21;59.56;99837.00;5096177;28;20048;-60
2022/11/18 11:34:10;;;;;;;13.43;2.55;;;;;;;16.09;56.60;99828.63;5076958;28;20048;-59
2022/11/18 11:37:03;;;;;;;10.57;2.90;;;;;;;16.60;55.80;99832.28;5070637;28;20402;-59
2022/11/18 11:40:10;;;;;;;16.30;3.10;;;;;;;15.80;57.47;99835.31;5065719;28;20604;-59
2022/11/18 11:43:06;;;;;;;11.45;2.60;;;;;;;15.33;58.01;99841.56;5095490;28;20055;-59
2022/11/18 11:45:46;;;;;;;16.38;3.50;;;;;;;15.92;57.79;99831.78;5084716;28;20166;-59
2022/11/18 11:48:39;;;;;;;14.40;2.63;;;;;;;15.50;58.60;99836.59;5091687;28;20059;-58
2022/11/18 11:51:18;;;;;;;14.90;2.88;;;;;;;14.28;63.92;99832.34;5089013;28;20135;-58
2022/11/18 11:54:23;;;;;;;17.35;2.60;;;;;;;13.33;65.44;99838.19;5096722;28;20135;-58
2022/11/18 11:56:54;;;;;;;16.08;2.47;;;;;;;12.67;68.22;99830.47;5076510;28;20129;-58
2022/11/18 12:00:00;;;;;;;16.50;2.85;;;;;;;12.75;68.58;99833.00;5092104;28;20047;-59
2022/11/18 12:03:02;;;;;;;18.55;2.95;;;;;;;13.07;67.86;99822.81;5082676;28;20048;-59
2022/11/18 12:05:34;;;;;;;11.15;2.58;;;;;;;12.79;68.75;99833.44;5079356;28;20028;-59
2022/11/18 12:08:08;;;;;;;13.75;2.67;;;;;;;12.77;68.72;99832.78;5076529;28;20498;-59
2022/11/18 12:10:47;;;;;;;12.93;2.67;;;;;;;12.36;69.90;99834.22;5062781;28;20449;-60
2022/11/18 12:13:46;;;;;;;13.85;2.42;;;;;;;11.89;72.36;99841.59;5082276;28;20044;-60
2022/11/18 12:16:27;;;;;;;12.85;2.60;;;;;;;11.69;74.22;99832.53;5089585;28;20063;-60
2022/11/18 12:21:53;;;;;;;15.90;3.05;;;;;;;11.49;74.95;99843.69;5112952;27;20658;-59
2022/11/18 12:27:03;;;;;;;10.90;2.72;;;;;;;12.08;73.35;99839.44;5101015;27;20354;-59
2022/11/18 12:29:42;;;;;;;11.70;2.60;;;;;;;12.52;73.33;99843.81;5112729;27;20551;-59
2022/11/18 12:32:41;;;;;;;16.88;3.13;;;;;;;12.75;71.28;99840.13;5092844;28;20039;-60
2022/11/18 12:40:47;;;;;;;16.45;2.80;;;;;;;12.49;70.61;99836.22;5058141;28;20406;-60